Gentle Leader — C6WY9 — position and weather

sailwx.info

Track history (hours):
 
Tides and Currents Weather Stations Pressure Air Temp Water Temp Dewpoint Dewpoint Depression Visibility Wind Speed Wind Dir Waves Ship Positions

Gentle Leader

Last reported at 2017-Jan-18 17:33 UTC. Time now 2017-Jan-18 18:07 UTC.
Position N 45°38' W 122°43'.

Length 200 m; draft 8.6 m.

Type: Cargo ship. MMSI: 311003300.

Date/timePositionNaut miles runAvg speedWind from/ knotsBaromVisibWave heightAir tempDewpointWater temp
2017-Jan-18 17:33N 45°38' W 122°43'0 0.0
2017-Jan-18 16:33N 45°38' W 122°43'0 0.0
2017-Jan-18 15:33N 45°38' W 122°43'0 0.0
2017-Jan-18 14:30N 45°38' W 122°43'0 0.0
2017-Jan-18 13:33N 45°38' W 122°43'0 0.0
2017-Jan-18 12:30N 45°38' W 122°43'0 0.0
2017-Jan-18 11:33N 45°38' W 122°43'0 0.0
2017-Jan-18 10:33N 45°38' W 122°43'0 0.0
2017-Jan-18 09:33N 45°38' W 122°43'0 0.0
2017-Jan-18 08:33N 45°38' W 122°43'0 0.0
2017-Jan-18 07:30N 45°38' W 122°43'0 0.0
2017-Jan-18 06:33N 45°38' W 122°43'0 0.0
2017-Jan-18 05:30N 45°38' W 122°43'0 0.0
2017-Jan-18 04:33N 45°38' W 122°43'0 0.0
2017-Jan-18 03:33N 45°38' W 122°43'0 0.0
2017-Jan-17 20:30N 45°38' W 122°43'0 0.0
2017-Jan-17 19:33N 45°38' W 122°43'0 0.0
2017-Jan-17 18:33N 45°38' W 122°43'0 0.0
2017-Jan-17 17:33N 45°38' W 122°43'0 0.0
2017-Jan-17 16:33N 45°38' W 122°43'0 0.0
2017-Jan-17 15:24N 45°38' W 122°43'0 0.0
2017-Jan-17 14:33N 45°38' W 122°43'0 0.0
2017-Jan-17 13:33N 45°38' W 122°43'0 0.0
2017-Jan-17 12:33N 45°38' W 122°43'0 0.0
2017-Jan-17 11:33N 45°38' W 122°43'0 0.0
2017-Jan-17 10:30N 45°38' W 122°43'0 0.0
2017-Jan-17 09:30N 45°38' W 122°43'0 0.0
2017-Jan-17 08:33N 45°38' W 122°43'0 0.0
2017-Jan-17 07:33N 45°38' W 122°43'0 0.0
2017-Jan-17 06:33N 45°38' W 122°43'0 0.0
2017-Jan-17 05:33N 45°38' W 122°43'0 0.0
2017-Jan-17 04:33N 45°38' W 122°43'2 1.5
2017-Jan-17 03:33N 45°39' W 122°45'1111.2
2017-Jan-17 02:33N 45°50' W 122°48'1110.7
2017-Jan-17 01:34N 46°00' W 122°51'9 8.9
2017-Jan-17 00:33N 46°07' W 122°59'1111.0
2017-Jan-16 23:34N 46°10' W 123°15'10 9.8
2017-Jan-16 22:34N 46°15' W 123°27'1414.1
2017-Jan-16 21:33N 46°13' W 123°47'9 9.4
2017-Jan-16 20:33N 46°15' W 124°00'1010.3
2017-Jan-16 19:33N 46°15' W 124°15'1010.0
2017-Jan-16 18:33N 46°23' W 124°24'1010.0
2017-Jan-16 17:33N 46°31' W 124°33'1010.1
2017-Jan-16 16:33N 46°40' W 124°40'1110.6
2017-Jan-16 15:33N 46°49' W 124°47'1111.0
2017-Jan-16 14:34N 46°59' W 124°53'1514.5
2017-Jan-16 13:33N 47°13' W 125°01'1414.5
2017-Jan-16 12:34N 47°27' W 125°07'1414.3
2017-Jan-16 11:33N 47°41' W 125°12'1413.8
2017-Jan-16 10:31N 47°55' W 125°16'1414.7
2017-Jan-16 09:33N 48°09' W 125°12'1514.8
2017-Jan-16 08:33N 48°23' W 125°08'1313.1
2017-Jan-16 07:34N 48°31' W 124°52'1616.0
2017-Jan-16 06:33N 48°27' W 124°29'1717.0
2017-Jan-16 05:34N 48°20' W 124°05'1717.2
2017-Jan-16 04:33N 48°16' W 123°40'1313.5
2017-Jan-16 03:33N 48°23' W 123°22'1413.5
2017-Jan-16 02:34N 48°35' W 123°14'1616.4
2017-Jan-16 01:34N 48°49' W 123°01'1918.8
2017-Jan-16 00:33N 49°04' W 123°20'1010.3
2017-Jan-15 23:33N 49°07' W 123°05'7 7.4
2017-Jan-15 22:33N 49°11' W 122°55'0 0.0
2017-Jan-15 21:30N 49°11' W 122°55'0 0.0
2017-Jan-15 20:33N 49°11' W 122°55'0 0.0
2017-Jan-15 19:24N 49°11' W 122°55'0 0.0
2017-Jan-15 18:27N 49°11' W 122°55'0 0.0
2017-Jan-15 17:33N 49°11' W 122°55'0 0.0
2017-Jan-15 16:33N 49°11' W 122°55'0 0.0
2017-Jan-15 15:33N 49°11' W 122°55'0 0.0
2017-Jan-15 14:33N 49°11' W 122°55'0 0.0
2017-Jan-15 13:33N 49°11' W 122°55'0 0.0
2017-Jan-15 12:24N 49°11' W 122°55'0 0.0
2017-Jan-15 11:30N 49°11' W 122°55'0 0.0
2017-Jan-15 10:33N 49°11' W 122°55'0 0.0
2017-Jan-15 09:30N 49°11' W 122°55'0 0.0
2017-Jan-15 08:33N 49°11' W 122°55'0 0.0
2017-Jan-15 07:33N 49°11' W 122°55'0 0.0
2017-Jan-15 06:30N 49°11' W 122°55'0 0.0
2017-Jan-15 05:30N 49°11' W 122°55'0 0.0
2017-Jan-15 04:30N 49°11' W 122°55'0 0.0
2017-Jan-15 03:33N 49°11' W 122°55'0 0.0
2017-Jan-15 02:33N 49°11' W 122°55'0 0.0
2017-Jan-15 01:33N 49°11' W 122°55'0 0.0
2017-Jan-15 00:33N 49°11' W 122°55'0 0.0
2017-Jan-14 23:33N 49°11' W 122°55'0 0.0
2017-Jan-14 22:32N 49°11' W 122°55'0 0.0
2017-Jan-14 21:32N 49°11' W 122°55'0 0.0
2017-Jan-14 20:32N 49°11' W 122°55'0 0.0
2017-Jan-14 19:32N 49°11' W 122°55'0 0.0
2017-Jan-14 18:32N 49°11' W 122°55'0 0.0
2017-Jan-14 17:32N 49°11' W 122°55'0 0.0
2017-Jan-14 16:32N 49°11' W 122°55'0 0.0
2017-Jan-14 15:32N 49°11' W 122°55'0 0.0
2017-Jan-14 14:32N 49°11' W 122°55'0 0.0
2017-Jan-14 13:33N 49°11' W 122°55'8 7.6
2017-Jan-14 12:33N 49°07' W 123°05'1010.4
2017-Jan-14 11:33N 49°06' W 123°21'1414.4
2017-Jan-14 10:33N 48°55' W 123°06'1414.5
2017-Jan-14 09:33N 48°42' W 123°15'1717.4
2017-Jan-14 08:33N 48°24' W 123°12'7 6.4
2017-Jan-14 07:31N 48°21' W 123°21'0 0.0
2017-Jan-14 06:31N 48°21' W 123°21'0 0.0
2017-Jan-14 05:31N 48°21' W 123°21'0 0.0
2017-Jan-14 04:31N 48°21' W 123°21'0 0.0
2017-Jan-14 03:31N 48°21' W 123°21'0 0.0
2017-Jan-13 23:31N 48°21' W 123°21'0 0.0
2017-Jan-13 22:31N 48°21' W 123°21'0 0.0
2017-Jan-13 21:31N 48°21' W 123°21'0 0.0
2017-Jan-13 20:31N 48°21' W 123°21'0 0.0
2017-Jan-13 19:31N 48°21' W 123°21'0 0.0
2017-Jan-13 18:31N 48°21' W 123°21'0 0.0
2017-Jan-13 17:31N 48°21' W 123°21'0 0.0
2017-Jan-13 16:28N 48°21' W 123°21'0 0.0
2017-Jan-13 15:31N 48°21' W 123°21'0 0.1
2017-Jan-13 14:31N 48°21' W 123°21'0 0.0
2017-Jan-13 13:31N 48°21' W 123°21'0 0.0
2017-Jan-13 12:31N 48°21' W 123°21'0 0.0
2017-Jan-13 11:31N 48°21' W 123°21'0 0.0
2017-Jan-13 10:31N 48°21' W 123°21'0 0.0
2017-Jan-13 09:31N 48°21' W 123°21'0 0.0
2017-Jan-13 08:31N 48°21' W 123°21'4 3.9
2017-Jan-13 07:33N 48°19' W 123°25'1010.1
2017-Jan-13 06:32N 48°13' W 123°38'1211.9
2017-Jan-13 05:33N 48°14' W 123°56'1212.2
2017-Jan-13 04:33N 48°19' W 124°12'1111.4
2017-Jan-13 03:33N 48°24' W 124°28'1111.3
2017-Jan-13 02:33N 48°28' W 124°43'1110.9
2017-Jan-13 01:33N 48°29' W 124°60'1211.3
2017-Jan-13 00:28N 48°28' W 125°18'1111.5
2017-Jan-12 23:33N 48°26' W 125°34'1111.5
2017-Jan-12 22:33N 48°24' W 125°51'1211.5
2017-Jan-12 21:32N 48°22' W 126°08'313 6.1
2017-Jan-10 18:00N 48°36' W 134°00'336 7.6 050 / 191007.0 5.4 6.0 7.0
2017-Jan-08 22:00N 53°06' W 139°18'   050 / 35997.0 5.4 2.0 7.0
Track history (hours):
 
Tides and Currents Weather Stations Pressure Air Temp Water Temp Dewpoint Dewpoint Depression Visibility Wind Speed Wind Dir Waves Ship Positions

Gentle Leader

Last reported at 2017-Jan-18 17:33 UTC. Time now 2017-Jan-18 18:07 UTC.
Position N 45°38' W 122°43'.

Length 200 m; draft 8.6 m.

Type: Cargo ship. MMSI: 311003300.

Date/timePositionNaut miles runAvg speedWind from/ knotsBaromVisibWave heightAir tempDewpointWater temp
2017-Jan-18 17:33N 45°38' W 122°43'0 0.0
2017-Jan-18 16:33N 45°38' W 122°43'0 0.0
2017-Jan-18 15:33N 45°38' W 122°43'0 0.0
2017-Jan-18 14:30N 45°38' W 122°43'0 0.0
2017-Jan-18 13:33N 45°38' W 122°43'0 0.0
2017-Jan-18 12:30N 45°38' W 122°43'0 0.0
2017-Jan-18 11:33N 45°38' W 122°43'0 0.0
2017-Jan-18 10:33N 45°38' W 122°43'0 0.0
2017-Jan-18 09:33N 45°38' W 122°43'0 0.0
2017-Jan-18 08:33N 45°38' W 122°43'0 0.0
2017-Jan-18 07:30N 45°38' W 122°43'0 0.0
2017-Jan-18 06:33N 45°38' W 122°43'0 0.0
2017-Jan-18 05:30N 45°38' W 122°43'0 0.0
2017-Jan-18 04:33N 45°38' W 122°43'0 0.0
2017-Jan-18 03:33N 45°38' W 122°43'0 0.0
2017-Jan-17 20:30N 45°38' W 122°43'0 0.0
2017-Jan-17 19:33N 45°38' W 122°43'0 0.0
2017-Jan-17 18:33N 45°38' W 122°43'0 0.0
2017-Jan-17 17:33N 45°38' W 122°43'0 0.0
2017-Jan-17 16:33N 45°38' W 122°43'0 0.0
2017-Jan-17 15:24N 45°38' W 122°43'0 0.0
2017-Jan-17 14:33N 45°38' W 122°43'0 0.0
2017-Jan-17 13:33N 45°38' W 122°43'0 0.0
2017-Jan-17 12:33N 45°38' W 122°43'0 0.0
2017-Jan-17 11:33N 45°38' W 122°43'0 0.0
2017-Jan-17 10:30N 45°38' W 122°43'0 0.0
2017-Jan-17 09:30N 45°38' W 122°43'0 0.0
2017-Jan-17 08:33N 45°38' W 122°43'0 0.0
2017-Jan-17 07:33N 45°38' W 122°43'0 0.0
2017-Jan-17 06:33N 45°38' W 122°43'0 0.0
2017-Jan-17 05:33N 45°38' W 122°43'0 0.0
2017-Jan-17 04:33N 45°38' W 122°43'2 1.5
2017-Jan-17 03:33N 45°39' W 122°45'1111.2
2017-Jan-17 02:33N 45°50' W 122°48'1110.7
2017-Jan-17 01:34N 46°00' W 122°51'9 8.9
2017-Jan-17 00:33N 46°07' W 122°59'1111.0
2017-Jan-16 23:34N 46°10' W 123°15'10 9.8
2017-Jan-16 22:34N 46°15' W 123°27'1414.1
2017-Jan-16 21:33N 46°13' W 123°47'9 9.4
2017-Jan-16 20:33N 46°15' W 124°00'1010.3
2017-Jan-16 19:33N 46°15' W 124°15'1010.0
2017-Jan-16 18:33N 46°23' W 124°24'1010.0
2017-Jan-16 17:33N 46°31' W 124°33'1010.1
2017-Jan-16 16:33N 46°40' W 124°40'1110.6
2017-Jan-16 15:33N 46°49' W 124°47'1111.0
2017-Jan-16 14:34N 46°59' W 124°53'1514.5
2017-Jan-16 13:33N 47°13' W 125°01'1414.5
2017-Jan-16 12:34N 47°27' W 125°07'1414.3
2017-Jan-16 11:33N 47°41' W 125°12'1413.8
2017-Jan-16 10:31N 47°55' W 125°16'1414.7
2017-Jan-16 09:33N 48°09' W 125°12'1514.8
2017-Jan-16 08:33N 48°23' W 125°08'1313.1
2017-Jan-16 07:34N 48°31' W 124°52'1616.0
2017-Jan-16 06:33N 48°27' W 124°29'1717.0
2017-Jan-16 05:34N 48°20' W 124°05'1717.2
2017-Jan-16 04:33N 48°16' W 123°40'1313.5
2017-Jan-16 03:33N 48°23' W 123°22'1413.5
2017-Jan-16 02:34N 48°35' W 123°14'1616.4
2017-Jan-16 01:34N 48°49' W 123°01'1918.8
2017-Jan-16 00:33N 49°04' W 123°20'1010.3
2017-Jan-15 23:33N 49°07' W 123°05'7 7.4
2017-Jan-15 22:33N 49°11' W 122°55'0 0.0
2017-Jan-15 21:30N 49°11' W 122°55'0 0.0
2017-Jan-15 20:33N 49°11' W 122°55'0 0.0
2017-Jan-15 19:24N 49°11' W 122°55'0 0.0
2017-Jan-15 18:27N 49°11' W 122°55'0 0.0
2017-Jan-15 17:33N 49°11' W 122°55'0 0.0
2017-Jan-15 16:33N 49°11' W 122°55'0 0.0
2017-Jan-15 15:33N 49°11' W 122°55'0 0.0
2017-Jan-15 14:33N 49°11' W 122°55'0 0.0
2017-Jan-15 13:33N 49°11' W 122°55'0 0.0
2017-Jan-15 12:24N 49°11' W 122°55'0 0.0
2017-Jan-15 11:30N 49°11' W 122°55'0 0.0
2017-Jan-15 10:33N 49°11' W 122°55'0 0.0
2017-Jan-15 09:30N 49°11' W 122°55'0 0.0
2017-Jan-15 08:33N 49°11' W 122°55'0 0.0
2017-Jan-15 07:33N 49°11' W 122°55'0 0.0
2017-Jan-15 06:30N 49°11' W 122°55'0 0.0
2017-Jan-15 05:30N 49°11' W 122°55'0 0.0
2017-Jan-15 04:30N 49°11' W 122°55'0 0.0
2017-Jan-15 03:33N 49°11' W 122°55'0 0.0
2017-Jan-15 02:33N 49°11' W 122°55'0 0.0
2017-Jan-15 01:33N 49°11' W 122°55'0 0.0
2017-Jan-15 00:33N 49°11' W 122°55'0 0.0
2017-Jan-14 23:33N 49°11' W 122°55'0 0.0
2017-Jan-14 22:32N 49°11' W 122°55'0 0.0
2017-Jan-14 21:32N 49°11' W 122°55'0 0.0
2017-Jan-14 20:32N 49°11' W 122°55'0 0.0
2017-Jan-14 19:32N 49°11' W 122°55'0 0.0
2017-Jan-14 18:32N 49°11' W 122°55'0 0.0
2017-Jan-14 17:32N 49°11' W 122°55'0 0.0
2017-Jan-14 16:32N 49°11' W 122°55'0 0.0
2017-Jan-14 15:32N 49°11' W 122°55'0 0.0
2017-Jan-14 14:32N 49°11' W 122°55'0 0.0
2017-Jan-14 13:33N 49°11' W 122°55'8 7.6
2017-Jan-14 12:33N 49°07' W 123°05'1010.4
2017-Jan-14 11:33N 49°06' W 123°21'1414.4
2017-Jan-14 10:33N 48°55' W 123°06'1414.5
2017-Jan-14 09:33N 48°42' W 123°15'1717.4
2017-Jan-14 08:33N 48°24' W 123°12'7 6.4
2017-Jan-14 07:31N 48°21' W 123°21'0 0.0
2017-Jan-14 06:31N 48°21' W 123°21'0 0.0
2017-Jan-14 05:31N 48°21' W 123°21'0 0.0
2017-Jan-14 04:31N 48°21' W 123°21'0 0.0
2017-Jan-14 03:31N 48°21' W 123°21'0 0.0
2017-Jan-13 23:31N 48°21' W 123°21'0 0.0
2017-Jan-13 22:31N 48°21' W 123°21'0 0.0
2017-Jan-13 21:31N 48°21' W 123°21'0 0.0
2017-Jan-13 20:31N 48°21' W 123°21'0 0.0
2017-Jan-13 19:31N 48°21' W 123°21'0 0.0
2017-Jan-13 18:31N 48°21' W 123°21'0 0.0
2017-Jan-13 17:31N 48°21' W 123°21'0 0.0
2017-Jan-13 16:28N 48°21' W 123°21'0 0.0
2017-Jan-13 15:31N 48°21' W 123°21'0 0.1
2017-Jan-13 14:31N 48°21' W 123°21'0 0.0
2017-Jan-13 13:31N 48°21' W 123°21'0 0.0
2017-Jan-13 12:31N 48°21' W 123°21'0 0.0
2017-Jan-13 11:31N 48°21' W 123°21'0 0.0
2017-Jan-13 10:31N 48°21' W 123°21'0 0.0
2017-Jan-13 09:31N 48°21' W 123°21'0 0.0
2017-Jan-13 08:31N 48°21' W 123°21'4 3.9
2017-Jan-13 07:33N 48°19' W 123°25'1010.1
2017-Jan-13 06:32N 48°13' W 123°38'1211.9
2017-Jan-13 05:33N 48°14' W 123°56'1212.2
2017-Jan-13 04:33N 48°19' W 124°12'1111.4
2017-Jan-13 03:33N 48°24' W 124°28'1111.3
2017-Jan-13 02:33N 48°28' W 124°43'1110.9
2017-Jan-13 01:33N 48°29' W 124°60'1211.3
2017-Jan-13 00:28N 48°28' W 125°18'1111.5
2017-Jan-12 23:33N 48°26' W 125°34'1111.5
2017-Jan-12 22:33N 48°24' W 125°51'1211.5
2017-Jan-12 21:32N 48°22' W 126°08'313 6.1
2017-Jan-10 18:00N 48°36' W 134°00'336 7.6 050 / 191007.0 5.4 6.0 7.0
2017-Jan-08 22:00N 53°06' W 139°18'   050 / 35997.0 5.4 2.0 7.0

Dump ship's entire track history